sensor_id;sensor_type;location;lat;lon;timestamp;pressure;altitude;pressure_sealevel;temperature;humidity
64343;BME280;50675;53.530;-6.312;2024-03-29T00:01:51;97057.69;;;6.39;61.98
64343;BME280;50675;53.530;-6.312;2024-03-29T00:04:17;97060.00;;;6.32;61.71
64343;BME280;50675;53.530;-6.312;2024-03-29T00:06:42;97068.41;;;6.39;61.99
64343;BME280;50675;53.530;-6.312;2024-03-29T00:09:08;97069.66;;;6.33;61.77
64343;BME280;50675;53.530;-6.312;2024-03-29T00:11:33;97067.06;;;6.20;61.87
64343;BME280;50675;53.530;-6.312;2024-03-29T00:13:59;97064.09;;;5.99;61.88
64343;BME280;50675;53.530;-6.312;2024-03-29T00:16:25;97058.00;;;6.07;61.80
64343;BME280;50675;53.530;-6.312;2024-03-29T00:18:51;97071.44;;;6.15;62.15
64343;BME280;50675;53.530;-6.312;2024-03-29T00:21:17;97071.75;;;6.14;62.08
64343;BME280;50675;53.530;-6.312;2024-03-29T00:23:43;97073.50;;;6.19;61.85
64343;BME280;50675;53.530;-6.312;2024-03-29T00:26:11;97075.72;;;6.17;61.79
64343;BME280;50675;53.530;-6.312;2024-03-29T00:28:37;97073.69;;;6.22;62.11
64343;BME280;50675;53.530;-6.312;2024-03-29T00:31:03;97071.16;;;6.17;61.73
64343;BME280;50675;53.530;-6.312;2024-03-29T00:33:29;97075.38;;;6.18;62.07
64343;BME280;50675;53.530;-6.312;2024-03-29T00:35:56;97076.06;;;6.24;61.76
64343;BME280;50675;53.530;-6.312;2024-03-29T00:38:21;97079.47;;;6.15;61.94
64343;BME280;50675;53.530;-6.312;2024-03-29T00:40:53;97083.97;;;6.29;62.36
64343;BME280;50675;53.530;-6.312;2024-03-29T00:43:25;97081.03;;;6.39;62.03
64343;BME280;50675;53.530;-6.312;2024-03-29T00:45:51;97079.94;;;6.40;61.91
64343;BME280;50675;53.530;-6.312;2024-03-29T00:48:17;97078.84;;;6.41;62.01
64343;BME280;50675;53.530;-6.312;2024-03-29T00:50:45;97078.34;;;6.39;62.31
64343;BME280;50675;53.530;-6.312;2024-03-29T00:53:11;97076.75;;;6.38;62.20
64343;BME280;50675;53.530;-6.312;2024-03-29T00:55:37;97078.78;;;6.32;61.92
64343;BME280;50675;53.530;-6.312;2024-03-29T00:58:02;97079.09;;;6.31;61.92
64343;BME280;50675;53.530;-6.312;2024-03-29T01:00:28;97082.50;;;6.23;62.19
64343;BME280;50675;53.530;-6.312;2024-03-29T01:02:57;97087.88;;;6.23;62.00
64343;BME280;50675;53.530;-6.312;2024-03-29T01:05:23;97091.28;;;6.14;62.10
64343;BME280;50675;53.530;-6.312;2024-03-29T01:07:49;97086.44;;;6.17;61.84
64343;BME280;50675;53.530;-6.312;2024-03-29T01:10:15;97086.69;;;6.06;61.80
64343;BME280;50675;53.530;-6.312;2024-03-29T01:12:41;97092.50;;;6.08;61.97
64343;BME280;50675;53.530;-6.312;2024-03-29T01:15:07;97094.41;;;6.08;61.91
64343;BME280;50675;53.530;-6.312;2024-03-29T01:17:32;97099.53;;;5.96;61.93
64343;BME280;50675;53.530;-6.312;2024-03-29T01:19:58;97101.91;;;5.97;62.02
64343;BME280;50675;53.530;-6.312;2024-03-29T01:22:24;97110.25;;;5.96;62.09
64343;BME280;50675;53.530;-6.312;2024-03-29T01:24:49;97105.69;;;5.96;61.66
64343;BME280;50675;53.530;-6.312;2024-03-29T01:27:15;97111.34;;;5.95;62.05
64343;BME280;50675;53.530;-6.312;2024-03-29T01:29:40;97112.75;;;5.92;61.70
64343;BME280;50675;53.530;-6.312;2024-03-29T01:32:06;97105.69;;;5.96;61.86
64343;BME280;50675;53.530;-6.312;2024-03-29T01:34:32;97105.28;;;5.89;62.07
64343;BME280;50675;53.530;-6.312;2024-03-29T01:36:58;97103.50;;;5.85;61.96
64343;BME280;50675;53.530;-6.312;2024-03-29T01:39:24;97105.50;;;5.93;62.00
64343;BME280;50675;53.530;-6.312;2024-03-29T01:41:54;97100.19;;;5.79;61.91
64343;BME280;50675;53.530;-6.312;2024-03-29T01:44:20;97107.97;;;5.89;62.17
64343;BME280;50675;53.530;-6.312;2024-03-29T01:46:46;97113.44;;;5.84;61.70
64343;BME280;50675;53.530;-6.312;2024-03-29T01:49:13;97106.78;;;5.82;62.18
64343;BME280;50675;53.530;-6.312;2024-03-29T01:51:39;97108.56;;;5.86;61.86
64343;BME280;50675;53.530;-6.312;2024-03-29T01:54:07;97101.16;;;5.83;61.96
64343;BME280;50675;53.530;-6.312;2024-03-29T01:56:35;97113.91;;;5.86;62.25
64343;BME280;50675;53.530;-6.312;2024-03-29T01:59:03;97110.09;;;5.79;62.13
64343;BME280;50675;53.530;-6.312;2024-03-29T02:01:30;97113.34;;;5.89;62.05
64343;BME280;50675;53.530;-6.312;2024-03-29T02:03:56;97112.56;;;5.89;62.24
64343;BME280;50675;53.530;-6.312;2024-03-29T02:06:22;97107.09;;;5.94;62.11
64343;BME280;50675;53.530;-6.312;2024-03-29T02:08:54;97108.97;;;5.93;62.24
64343;BME280;50675;53.530;-6.312;2024-03-29T02:11:21;97115.19;;;6.02;62.16
64343;BME280;50675;53.530;-6.312;2024-03-29T02:13:48;97118.28;;;5.96;62.23
64343;BME280;50675;53.530;-6.312;2024-03-29T02:16:13;97113.41;;;5.98;62.29
64343;BME280;50675;53.530;-6.312;2024-03-29T02:18:39;97110.97;;;5.88;62.14
64343;BME280;50675;53.530;-6.312;2024-03-29T02:21:05;97114.53;;;5.83;62.10
64343;BME280;50675;53.530;-6.312;2024-03-29T02:23:32;97115.41;;;5.92;61.78
64343;BME280;50675;53.530;-6.312;2024-03-29T02:25:58;97108.47;;;5.91;62.10
64343;BME280;50675;53.530;-6.312;2024-03-29T02:28:25;97113.44;;;5.84;61.92
64343;BME280;50675;53.530;-6.312;2024-03-29T02:30:51;97111.69;;;5.80;61.83
64343;BME280;50675;53.530;-6.312;2024-03-29T02:33:17;97110.16;;;5.65;62.10
64343;BME280;50675;53.530;-6.312;2024-03-29T02:35:42;97108.56;;;5.64;62.13
64343;BME280;50675;53.530;-6.312;2024-03-29T02:38:08;97104.78;;;5.65;62.34
64343;BME280;50675;53.530;-6.312;2024-03-29T02:40:34;97116.25;;;5.79;62.10
64343;BME280;50675;53.530;-6.312;2024-03-29T02:43:00;97111.69;;;5.80;62.21
64343;BME280;50675;53.530;-6.312;2024-03-29T02:45:25;97108.84;;;5.85;62.10
64343;BME280;50675;53.530;-6.312;2024-03-29T02:47:51;97110.22;;;5.73;62.00
64343;BME280;50675;53.530;-6.312;2024-03-29T02:50:17;97113.03;;;5.55;62.45
64343;BME280;50675;53.530;-6.312;2024-03-29T02:52:43;97104.41;;;5.58;62.33
64343;BME280;50675;53.530;-6.312;2024-03-29T02:55:08;97105.59;;;5.52;61.94
64343;BME280;50675;53.530;-6.312;2024-03-29T02:57:37;97102.81;;;5.57;62.05
64343;BME280;50675;53.530;-6.312;2024-03-29T03:00:05;97103.56;;;5.71;62.29
64343;BME280;50675;53.530;-6.312;2024-03-29T03:02:30;97095.16;;;5.64;62.26
64343;BME280;50675;53.530;-6.312;2024-03-29T03:04:56;97100.19;;;5.65;62.26
64343;BME280;50675;53.530;-6.312;2024-03-29T03:07:22;97105.75;;;5.69;62.28
64343;BME280;50675;53.530;-6.312;2024-03-29T03:10:06;97104.34;;;5.71;62.53
64343;BME280;50675;53.530;-6.312;2024-03-29T03:12:51;97098.19;;;5.71;62.38
64343;BME280;50675;53.530;-6.312;2024-03-29T03:15:16;97097.41;;;5.70;62.11
64343;BME280;50675;53.530;-6.312;2024-03-29T03:17:42;97102.72;;;5.84;62.49
64343;BME280;50675;53.530;-6.312;2024-03-29T03:20:08;97099.22;;;5.97;62.31
64343;BME280;50675;53.530;-6.312;2024-03-29T03:22:35;97101.84;;;6.11;62.39
64343;BME280;50675;53.530;-6.312;2024-03-29T03:25:01;97097.44;;;6.15;62.39
64343;BME280;50675;53.530;-6.312;2024-03-29T03:27:26;97093.38;;;5.95;62.25
64343;BME280;50675;53.530;-6.312;2024-03-29T03:29:52;97095.94;;;6.00;62.34
64343;BME280;50675;53.530;-6.312;2024-03-29T03:32:18;97086.94;;;5.96;62.45
64343;BME280;50675;53.530;-6.312;2024-03-29T03:34:44;97091.19;;;5.97;62.66
64343;BME280;50675;53.530;-6.312;2024-03-29T03:37:09;97083.28;;;5.92;62.55
64343;BME280;50675;53.530;-6.312;2024-03-29T03:39:35;97089.34;;;5.84;62.39
64343;BME280;50675;53.530;-6.312;2024-03-29T03:42:01;97089.56;;;5.88;62.86
64343;BME280;50675;53.530;-6.312;2024-03-29T03:44:27;97091.19;;;5.97;62.34
64343;BME280;50675;53.530;-6.312;2024-03-29T03:46:55;97092.56;;;5.95;62.52
64343;BME280;50675;53.530;-6.312;2024-03-29T03:49:20;97094.34;;;5.99;62.59
64343;BME280;50675;53.530;-6.312;2024-03-29T03:51:46;97088.50;;;5.97;62.83
64343;BME280;50675;53.530;-6.312;2024-03-29T03:54:12;97084.75;;;5.98;62.51
64343;BME280;50675;53.530;-6.312;2024-03-29T03:56:37;97085.88;;;6.06;62.23
64343;BME280;50675;53.530;-6.312;2024-03-29T03:59:03;97089.59;;;5.96;62.84
64343;BME280;50675;53.530;-6.312;2024-03-29T04:01:28;97088.66;;;5.79;62.52
64343;BME280;50675;53.530;-6.312;2024-03-29T04:03:54;97082.06;;;5.85;62.78
64343;BME280;50675;53.530;-6.312;2024-03-29T04:06:20;97084.47;;;5.86;62.77
64343;BME280;50675;53.530;-6.312;2024-03-29T04:08:46;97087.13;;;5.86;62.84
64343;BME280;50675;53.530;-6.312;2024-03-29T04:11:12;97083.66;;;5.86;62.76
64343;BME280;50675;53.530;-6.312;2024-03-29T04:13:38;97071.94;;;5.95;62.74
64343;BME280;50675;53.530;-6.312;2024-03-29T04:16:05;97073.97;;;6.12;62.66
64343;BME280;50675;53.530;-6.312;2024-03-29T04:18:32;97066.03;;;6.07;62.86
64343;BME280;50675;53.530;-6.312;2024-03-29T04:20:59;97069.25;;;6.18;63.17
64343;BME280;50675;53.530;-6.312;2024-03-29T04:23:25;97077.94;;;6.23;63.15
64343;BME280;50675;53.530;-6.312;2024-03-29T04:25:58;97070.94;;;6.36;62.97
64343;BME280;50675;53.530;-6.312;2024-03-29T04:28:24;97070.91;;;6.27;62.91
64343;BME280;50675;53.530;-6.312;2024-03-29T04:31:00;97070.22;;;6.22;63.39
64343;BME280;50675;53.530;-6.312;2024-03-29T04:33:26;97071.31;;;6.21;63.39
64343;BME280;50675;53.530;-6.312;2024-03-29T04:36:00;97069.25;;;6.18;63.00
64343;BME280;50675;53.530;-6.312;2024-03-29T04:38:26;97077.91;;;6.14;63.43
64343;BME280;50675;53.530;-6.312;2024-03-29T04:40:54;97077.91;;;6.14;62.96
64343;BME280;50675;53.530;-6.312;2024-03-29T04:43:25;97087.09;;;6.22;63.25
64343;BME280;50675;53.530;-6.312;2024-03-29T04:46:16;97086.81;;;6.32;63.23
64343;BME280;50675;53.530;-6.312;2024-03-29T04:48:42;97087.47;;;6.38;63.07
64343;BME280;50675;53.530;-6.312;2024-03-29T04:51:09;97082.47;;;6.45;63.30
64343;BME280;50675;53.530;-6.312;2024-03-29T04:53:52;97090.34;;;6.41;63.22
64343;BME280;50675;53.530;-6.312;2024-03-29T04:56:18;97090.06;;;6.51;63.42
64343;BME280;50675;53.530;-6.312;2024-03-29T04:58:44;97094.34;;;6.52;63.29
64343;BME280;50675;53.530;-6.312;2024-03-29T05:01:11;97098.19;;;6.60;63.63
64343;BME280;50675;53.530;-6.312;2024-03-29T05:03:37;97091.69;;;6.61;63.76
64343;BME280;50675;53.530;-6.312;2024-03-29T05:06:02;97095.81;;;6.67;63.33
64343;BME280;50675;53.530;-6.312;2024-03-29T05:08:28;97095.69;;;6.72;63.59
64343;BME280;50675;53.530;-6.312;2024-03-29T05:10:53;97099.81;;;6.78;63.54
64343;BME280;50675;53.530;-6.312;2024-03-29T05:13:19;97097.00;;;6.83;63.53
64343;BME280;50675;53.530;-6.312;2024-03-29T05:15:48;97106.31;;;6.86;63.71
64343;BME280;50675;53.530;-6.312;2024-03-29T05:18:16;97100.63;;;6.87;64.05
64343;BME280;50675;53.530;-6.312;2024-03-29T05:20:44;97102.09;;;6.93;63.80
64343;BME280;50675;53.530;-6.312;2024-03-29T05:23:14;97103.03;;;6.97;63.93
64343;BME280;50675;53.530;-6.312;2024-03-29T05:25:40;97108.56;;;7.01;63.97
64343;BME280;50675;53.530;-6.312;2024-03-29T05:28:09;97104.00;;;7.01;63.87
64343;BME280;50675;53.530;-6.312;2024-03-29T05:30:34;97114.44;;;7.03;63.85
64343;BME280;50675;53.530;-6.312;2024-03-29T05:33:03;97122.00;;;7.01;64.22
64343;BME280;50675;53.530;-6.312;2024-03-29T05:35:29;97122.28;;;6.99;64.06
64343;BME280;50675;53.530;-6.312;2024-03-29T05:37:55;97118.03;;;6.98;64.02
64343;BME280;50675;53.530;-6.312;2024-03-29T05:40:21;97113.50;;;7.08;63.94
64343;BME280;50675;53.530;-6.312;2024-03-29T05:42:53;97111.75;;;7.12;63.88
64343;BME280;50675;53.530;-6.312;2024-03-29T05:45:37;97106.56;;;7.15;64.03
64343;BME280;50675;53.530;-6.312;2024-03-29T05:48:03;97113.50;;;7.16;63.79
64343;BME280;50675;53.530;-6.312;2024-03-29T05:50:29;97107.72;;;7.31;63.97
64343;BME280;50675;53.530;-6.312;2024-03-29T05:52:54;97113.09;;;7.31;63.82
64343;BME280;50675;53.530;-6.312;2024-03-29T05:55:20;97122.09;;;7.44;64.22
64343;BME280;50675;53.530;-6.312;2024-03-29T05:57:47;97122.41;;;7.51;64.18
64343;BME280;50675;53.530;-6.312;2024-03-29T06:00:14;97117.03;;;7.51;64.38
64343;BME280;50675;53.530;-6.312;2024-03-29T06:02:42;97113.72;;;7.45;64.33
64343;BME280;50675;53.530;-6.312;2024-03-29T06:05:13;97125.56;;;7.53;64.07
64343;BME280;50675;53.530;-6.312;2024-03-29T06:07:43;97125.25;;;7.46;64.13
64343;BME280;50675;53.530;-6.312;2024-03-29T06:10:21;97122.09;;;7.44;64.30
64343;BME280;50675;53.530;-6.312;2024-03-29T06:12:50;97131.25;;;7.52;63.98
64343;BME280;50675;53.530;-6.312;2024-03-29T06:15:24;97133.00;;;7.56;64.14
64343;BME280;50675;53.530;-6.312;2024-03-29T06:18:08;97135.22;;;7.54;64.01
64343;BME280;50675;53.530;-6.312;2024-03-29T06:20:44;97123.34;;;7.46;64.27
64343;BME280;50675;53.530;-6.312;2024-03-29T06:23:16;97132.84;;;7.44;64.11
64343;BME280;50675;53.530;-6.312;2024-03-29T06:25:44;97127.31;;;7.40;64.02
64343;BME280;50675;53.530;-6.312;2024-03-29T06:28:19;97124.28;;;7.33;64.23
64343;BME280;50675;53.530;-6.312;2024-03-29T06:30:48;97136.47;;;7.39;64.17
64343;BME280;50675;53.530;-6.312;2024-03-29T06:33:13;97126.53;;;7.48;64.11
64343;BME280;50675;53.530;-6.312;2024-03-29T06:35:39;97135.72;;;7.65;64.04
64343;BME280;50675;53.530;-6.312;2024-03-29T06:38:05;97123.53;;;7.84;64.10
64343;BME280;50675;53.530;-6.312;2024-03-29T06:40:30;97126.06;;;8.07;63.94
64343;BME280;50675;53.530;-6.312;2024-03-29T06:42:56;97131.25;;;8.29;64.00
64343;BME280;50675;53.530;-6.312;2024-03-29T06:45:23;97121.44;;;8.50;64.25
64343;BME280;50675;53.530;-6.312;2024-03-29T06:47:49;97121.53;;;8.71;64.13
64343;BME280;50675;53.530;-6.312;2024-03-29T06:50:14;97136.00;;;8.96;64.10
64343;BME280;50675;53.530;-6.312;2024-03-29T06:52:40;97125.91;;;9.22;64.25
64343;BME280;50675;53.530;-6.312;2024-03-29T06:55:06;97125.44;;;9.49;64.36
64343;BME280;50675;53.530;-6.312;2024-03-29T06:57:32;97129.06;;;9.74;64.35
64343;BME280;50675;53.530;-6.312;2024-03-29T06:59:58;97134.13;;;9.96;64.51
64343;BME280;50675;53.530;-6.312;2024-03-29T07:02:24;97140.03;;;10.10;64.74
64343;BME280;50675;53.530;-6.312;2024-03-29T07:04:50;97136.22;;;10.32;64.34
64343;BME280;50675;53.530;-6.312;2024-03-29T07:07:15;97138.41;;;10.51;64.38
64343;BME280;50675;53.530;-6.312;2024-03-29T07:09:41;97134.19;;;10.62;64.56
64343;BME280;50675;53.530;-6.312;2024-03-29T07:12:07;97139.81;;;10.69;64.48
64343;BME280;50675;53.530;-6.312;2024-03-29T07:14:32;97137.41;;;10.56;64.41
64343;BME280;50675;53.530;-6.312;2024-03-29T07:16:58;97150.94;;;10.68;64.55
64343;BME280;50675;53.530;-6.312;2024-03-29T07:19:24;97149.38;;;10.79;64.48
64343;BME280;50675;53.530;-6.312;2024-03-29T07:21:50;97147.47;;;10.79;64.63
64343;BME280;50675;53.530;-6.312;2024-03-29T07:24:19;97144.56;;;10.84;64.56
64343;BME280;50675;53.530;-6.312;2024-03-29T07:26:45;97151.31;;;10.90;64.50
64343;BME280;50675;53.530;-6.312;2024-03-29T07:29:12;97160.44;;;10.86;64.58
64343;BME280;50675;53.530;-6.312;2024-03-29T07:31:37;97151.88;;;10.84;64.56
64343;BME280;50675;53.530;-6.312;2024-03-29T07:34:03;97162.88;;;10.79;64.55
64343;BME280;50675;53.530;-6.312;2024-03-29T07:36:29;97168.38;;;10.70;64.68
64343;BME280;50675;53.530;-6.312;2024-03-29T07:38:59;97163.41;;;10.60;64.57
64343;BME280;50675;53.530;-6.312;2024-03-29T07:41:24;97164.41;;;10.56;64.47
64343;BME280;50675;53.530;-6.312;2024-03-29T07:43:57;97165.28;;;10.47;64.52
64343;BME280;50675;53.530;-6.312;2024-03-29T07:46:28;97155.94;;;10.45;64.41
64343;BME280;50675;53.530;-6.312;2024-03-29T07:48:54;97147.28;;;10.39;64.46
64343;BME280;50675;53.530;-6.312;2024-03-29T07:51:20;97161.28;;;10.33;64.52
64343;BME280;50675;53.530;-6.312;2024-03-29T07:53:46;97167.66;;;10.28;64.43
64343;BME280;50675;53.530;-6.312;2024-03-29T07:56:11;97160.78;;;10.19;64.72
64343;BME280;50675;53.530;-6.312;2024-03-29T07:58:37;97164.06;;;10.24;64.59
64343;BME280;50675;53.530;-6.312;2024-03-29T08:01:03;97163.75;;;10.26;65.14
64343;BME280;50675;53.530;-6.312;2024-03-29T08:03:28;97172.13;;;10.03;64.69
64343;BME280;50675;53.530;-6.312;2024-03-29T08:06:01;97178.06;;;9.97;64.66
64343;BME280;50675;53.530;-6.312;2024-03-29T08:08:30;97175.63;;;9.83;64.77
64343;BME280;50675;53.530;-6.312;2024-03-29T08:10:56;97180.41;;;9.78;64.67
64343;BME280;50675;53.530;-6.312;2024-03-29T08:13:23;97182.00;;;9.99;65.05
64343;BME280;50675;53.530;-6.312;2024-03-29T08:15:59;97184.09;;;9.94;65.13
64343;BME280;50675;53.530;-6.312;2024-03-29T08:18:26;97184.88;;;9.94;65.03
64343;BME280;50675;53.530;-6.312;2024-03-29T08:20:52;97182.78;;;10.00;65.22
64343;BME280;50675;53.530;-6.312;2024-03-29T08:23:18;97183.56;;;10.00;65.28
64343;BME280;50675;53.530;-6.312;2024-03-29T08:25:44;97189.47;;;9.94;65.26
64343;BME280;50675;53.530;-6.312;2024-03-29T08:28:09;97182.47;;;10.01;65.51
64343;BME280;50675;53.530;-6.312;2024-03-29T08:30:36;97188.91;;;10.09;65.64
64343;BME280;50675;53.530;-6.312;2024-03-29T08:33:02;97198.84;;;10.17;65.30
64343;BME280;50675;53.530;-6.312;2024-03-29T08:35:35;97189.38;;;10.11;65.69
64343;BME280;50675;53.530;-6.312;2024-03-29T08:38:01;97194.25;;;10.18;65.67
64343;BME280;50675;53.530;-6.312;2024-03-29T08:40:28;97179.84;;;10.34;65.73
64343;BME280;50675;53.530;-6.312;2024-03-29T08:42:59;97186.22;;;10.30;65.92
64343;BME280;50675;53.530;-6.312;2024-03-29T08:45:25;97191.94;;;10.28;65.76
64343;BME280;50675;53.530;-6.312;2024-03-29T08:47:51;97198.19;;;10.41;65.88
64343;BME280;50675;53.530;-6.312;2024-03-29T08:50:16;97193.16;;;10.51;65.82
64343;BME280;50675;53.530;-6.312;2024-03-29T08:52:44;97201.03;;;10.44;65.89
64343;BME280;50675;53.530;-6.312;2024-03-29T08:55:11;97204.00;;;10.31;65.97
64343;BME280;50675;53.530;-6.312;2024-03-29T08:57:36;97205.00;;;10.26;66.23
64343;BME280;50675;53.530;-6.312;2024-03-29T09:00:02;97207.72;;;10.59;66.08
64343;BME280;50675;53.530;-6.312;2024-03-29T09:02:28;97206.75;;;10.76;66.15
64343;BME280;50675;53.530;-6.312;2024-03-29T09:04:54;97206.88;;;10.79;66.27
64343;BME280;50675;53.530;-6.312;2024-03-29T09:07:20;97210.19;;;10.97;66.28
64343;BME280;50675;53.530;-6.312;2024-03-29T09:09:49;97204.66;;;10.93;66.28
64343;BME280;50675;53.530;-6.312;2024-03-29T09:12:14;97214.38;;;11.19;66.67
64343;BME280;50675;53.530;-6.312;2024-03-29T09:14:40;97217.88;;;11.19;66.42
64343;BME280;50675;53.530;-6.312;2024-03-29T09:17:06;97213.22;;;11.08;66.61
64343;BME280;50675;53.530;-6.312;2024-03-29T09:19:31;97208.41;;;11.01;66.24
64343;BME280;50675;53.530;-6.312;2024-03-29T09:21:58;97218.88;;;11.15;66.24
64343;BME280;50675;53.530;-6.312;2024-03-29T09:24:23;97207.03;;;10.95;66.51
64343;BME280;50675;53.530;-6.312;2024-03-29T09:26:51;97214.72;;;11.05;66.49
64343;BME280;50675;53.530;-6.312;2024-03-29T09:29:17;97222.59;;;11.10;66.55
64343;BME280;50675;53.530;-6.312;2024-03-29T09:31:45;97213.59;;;11.06;66.71
64343;BME280;50675;53.530;-6.312;2024-03-29T09:34:12;97233.31;;;10.74;66.66
64343;BME280;50675;53.530;-6.312;2024-03-29T09:36:38;97224.03;;;10.63;66.70
64343;BME280;50675;53.530;-6.312;2024-03-29T09:39:04;97200.91;;;10.74;66.79
64343;BME280;50675;53.530;-6.312;2024-03-29T09:41:31;97215.88;;;10.83;66.73
64343;BME280;50675;53.530;-6.312;2024-03-29T09:44:02;97211.72;;;10.53;66.85
64343;BME280;50675;53.530;-6.312;2024-03-29T09:46:29;97213.53;;;10.82;67.05
64343;BME280;50675;53.530;-6.312;2024-03-29T09:48:55;97218.72;;;10.87;67.13
64343;BME280;50675;53.530;-6.312;2024-03-29T09:51:21;97225.06;;;10.70;66.69
64343;BME280;50675;53.530;-6.312;2024-03-29T09:53:48;97221.00;;;10.64;66.83
64343;BME280;50675;53.530;-6.312;2024-03-29T09:56:15;97220.66;;;10.66;66.87
64343;BME280;50675;53.530;-6.312;2024-03-29T09:58:41;97225.75;;;10.79;67.07
64343;BME280;50675;53.530;-6.312;2024-03-29T10:01:07;97233.34;;;10.86;66.96
64343;BME280;50675;53.530;-6.312;2024-03-29T10:03:40;97238.47;;;11.12;66.98
64343;BME280;50675;53.530;-6.312;2024-03-29T10:06:06;97231.81;;;10.97;67.13
64343;BME280;50675;53.530;-6.312;2024-03-29T10:08:37;97228.94;;;10.93;67.15
64343;BME280;50675;53.530;-6.312;2024-03-29T10:11:03;97232.28;;;11.23;67.15
64343;BME280;50675;53.530;-6.312;2024-03-29T10:13:28;97225.13;;;11.52;67.38
64343;BME280;50675;53.530;-6.312;2024-03-29T10:15:55;97224.31;;;11.51;67.18
64343;BME280;50675;53.530;-6.312;2024-03-29T10:18:26;97223.66;;;11.78;67.36
64343;BME280;50675;53.530;-6.312;2024-03-29T10:21:02;97221.50;;;11.72;67.31
64343;BME280;50675;53.530;-6.312;2024-03-29T10:23:28;97230.09;;;11.86;67.19
64343;BME280;50675;53.530;-6.312;2024-03-29T10:25:55;97227.34;;;12.10;67.11
64343;BME280;50675;53.530;-6.312;2024-03-29T10:28:21;97224.28;;;12.24;67.20
64343;BME280;50675;53.530;-6.312;2024-03-29T10:30:48;97222.94;;;12.18;67.17
64343;BME280;50675;53.530;-6.312;2024-03-29T10:33:14;97213.53;;;12.40;67.08
64343;BME280;50675;53.530;-6.312;2024-03-29T10:35:44;97213.53;;;12.40;67.25
64343;BME280;50675;53.530;-6.312;2024-03-29T10:38:10;97211.88;;;12.79;67.20
64343;BME280;50675;53.530;-6.312;2024-03-29T10:40:40;97225.69;;;13.01;67.10
64343;BME280;50675;53.530;-6.312;2024-03-29T10:43:10;97216.13;;;13.07;67.27
64343;BME280;50675;53.530;-6.312;2024-03-29T10:45:42;97218.66;;;13.28;67.07
64343;BME280;50675;53.530;-6.312;2024-03-29T10:48:09;97229.13;;;13.45;66.96
64343;BME280;50675;53.530;-6.312;2024-03-29T10:50:36;97223.44;;;13.66;67.21
64343;BME280;50675;53.530;-6.312;2024-03-29T10:53:03;97225.38;;;13.81;67.17
64343;BME280;50675;53.530;-6.312;2024-03-29T10:55:29;97227.44;;;13.88;66.99
64343;BME280;50675;53.530;-6.312;2024-03-29T10:57:57;97229.53;;;13.94;66.82
64343;BME280;50675;53.530;-6.312;2024-03-29T11:00:24;97228.69;;;13.75;66.97
64343;BME280;50675;53.530;-6.312;2024-03-29T11:03:57;97232.78;;;14.00;66.94
64343;BME280;50675;53.530;-6.312;2024-03-29T11:05:50;97240.19;;;14.03;67.06
64343;BME280;50675;53.530;-6.312;2024-03-29T11:08:22;97234.41;;;13.54;66.89
64343;BME280;50675;53.530;-6.312;2024-03-29T11:10:54;97235.63;;;13.56;67.00
64343;BME280;50675;53.530;-6.312;2024-03-29T11:13:37;97226.94;;;13.82;66.93
64343;BME280;50675;53.530;-6.312;2024-03-29T11:16:07;97238.13;;;13.65;66.84
64343;BME280;50675;53.530;-6.312;2024-03-29T11:18:34;97236.66;;;13.68;66.82
64343;BME280;50675;53.530;-6.312;2024-03-29T11:21:01;97236.47;;;13.76;66.79
64343;BME280;50675;53.530;-6.312;2024-03-29T11:23:27;97217.75;;;13.87;66.79
64343;BME280;50675;53.530;-6.312;2024-03-29T11:25:55;97251.69;;;13.81;66.65
64343;BME280;50675;53.530;-6.312;2024-03-29T11:28:24;97242.50;;;13.85;66.67
64343;BME280;50675;53.530;-6.312;2024-03-29T11:30:52;97242.44;;;13.82;66.56
64343;BME280;50675;53.530;-6.312;2024-03-29T11:33:43;97234.63;;;13.80;66.64
64343;BME280;50675;53.530;-6.312;2024-03-29T11:36:17;97229.38;;;13.87;66.63
64343;BME280;50675;53.530;-6.312;2024-03-29T11:38:45;97250.97;;;13.84;66.60
64343;BME280;50675;53.530;-6.312;2024-03-29T11:41:24;97250.72;;;13.89;66.83
64343;BME280;50675;53.530;-6.312;2024-03-29T11:43:51;97244.47;;;14.04;66.66
64343;BME280;50675;53.530;-6.312;2024-03-29T11:46:17;97242.06;;;13.83;66.89
64343;BME280;50675;53.530;-6.312;2024-03-29T11:48:44;97235.94;;;13.71;66.79
64343;BME280;50675;53.530;-6.312;2024-03-29T11:51:13;97255.72;;;13.87;66.93
64343;BME280;50675;53.530;-6.312;2024-03-29T11:53:42;97249.41;;;13.83;66.83
64343;BME280;50675;53.530;-6.312;2024-03-29T11:56:09;97251.34;;;13.67;66.82
64343;BME280;50675;53.530;-6.312;2024-03-29T11:58:37;97241.63;;;13.81;66.83
64343;BME280;50675;53.530;-6.312;2024-03-29T12:01:04;97247.47;;;13.99;66.65
64343;BME280;50675;53.530;-6.312;2024-03-29T12:03:31;97247.75;;;13.94;66.76
64343;BME280;50675;53.530;-6.312;2024-03-29T12:05:58;97235.34;;;14.12;66.77
64343;BME280;50675;53.530;-6.312;2024-03-29T12:08:30;97253.16;;;13.94;66.72
64343;BME280;50675;53.530;-6.312;2024-03-29T12:11:01;97259.50;;;14.17;66.74
64343;BME280;50675;53.530;-6.312;2024-03-29T12:13:27;97260.06;;;14.07;66.68
64343;BME280;50675;53.530;-6.312;2024-03-29T12:15:53;97271.28;;;14.06;66.64
64343;BME280;50675;53.530;-6.312;2024-03-29T12:18:23;97268.22;;;13.91;66.63
64343;BME280;50675;53.530;-6.312;2024-03-29T12:20:50;97268.34;;;13.64;66.80
64343;BME280;50675;53.530;-6.312;2024-03-29T12:23:17;97267.28;;;13.68;66.65
64343;BME280;50675;53.530;-6.312;2024-03-29T12:25:44;97263.25;;;13.62;66.67
64343;BME280;50675;53.530;-6.312;2024-03-29T12:28:11;97275.56;;;13.59;66.71
64343;BME280;50675;53.530;-6.312;2024-03-29T12:30:40;97273.47;;;13.84;66.54
64343;BME280;50675;53.530;-6.312;2024-03-29T12:33:20;97275.06;;;13.54;66.92
64343;BME280;50675;53.530;-6.312;2024-03-29T12:35:47;97262.66;;;13.53;67.02
64343;BME280;50675;53.530;-6.312;2024-03-29T12:38:16;97276.44;;;13.79;66.74
64343;BME280;50675;53.530;-6.312;2024-03-29T12:40:43;97275.66;;;13.47;66.85
64343;BME280;50675;53.530;-6.312;2024-03-29T12:43:10;97264.31;;;13.57;66.74
64343;BME280;50675;53.530;-6.312;2024-03-29T12:45:39;97279.09;;;13.60;66.93
64343;BME280;50675;53.530;-6.312;2024-03-29T12:48:21;97271.72;;;13.45;66.88
64343;BME280;50675;53.530;-6.312;2024-03-29T12:50:50;97274.09;;;13.46;66.89
64343;BME280;50675;53.530;-6.312;2024-03-29T12:53:16;97273.25;;;13.58;66.93
64343;BME280;50675;53.530;-6.312;2024-03-29T12:55:47;97273.31;;;13.46;66.60
64343;BME280;50675;53.530;-6.312;2024-03-29T12:58:17;97279.78;;;13.41;66.85